sensor_id;sensor_type;location;lat;lon;timestamp;P1;durP1;ratioP1;P2;durP2;ratioP2
3278;SDS011;1651;50.940;6.888;2023-06-10T00:01:36;10.03;;;8.60;;
3278;SDS011;1651;50.940;6.888;2023-06-10T00:04:02;8.00;;;7.30;;
3278;SDS011;1651;50.940;6.888;2023-06-10T00:06:29;9.60;;;8.70;;
3278;SDS011;1651;50.940;6.888;2023-06-10T00:09:04;11.23;;;10.07;;
3278;SDS011;1651;50.940;6.888;2023-06-10T00:11:31;10.30;;;9.40;;
3278;SDS011;1651;50.940;6.888;2023-06-10T00:13:59;10.47;;;9.67;;
3278;SDS011;1651;50.940;6.888;2023-06-10T00:16:25;11.50;;;9.80;;
3278;SDS011;1651;50.940;6.888;2023-06-10T00:18:51;11.00;;;10.00;;
3278;SDS011;1651;50.940;6.888;2023-06-10T00:21:17;9.53;;;8.73;;
3278;SDS011;1651;50.940;6.888;2023-06-10T00:23:44;11.70;;;10.50;;
3278;SDS011;1651;50.940;6.888;2023-06-10T00:26:10;9.87;;;8.70;;
3278;SDS011;1651;50.940;6.888;2023-06-10T00:28:36;11.23;;;10.07;;
3278;SDS011;1651;50.940;6.888;2023-06-10T00:31:02;10.43;;;9.53;;
3278;SDS011;1651;50.940;6.888;2023-06-10T00:33:29;11.10;;;10.07;;
3278;SDS011;1651;50.940;6.888;2023-06-10T00:35:56;11.03;;;9.97;;
3278;SDS011;1651;50.940;6.888;2023-06-10T00:38:21;11.33;;;10.30;;
3278;SDS011;1651;50.940;6.888;2023-06-10T00:40:48;11.57;;;10.30;;
3278;SDS011;1651;50.940;6.888;2023-06-10T00:43:14;10.87;;;9.87;;
3278;SDS011;1651;50.940;6.888;2023-06-10T00:45:40;10.60;;;9.60;;
3278;SDS011;1651;50.940;6.888;2023-06-10T00:48:06;10.30;;;9.40;;
3278;SDS011;1651;50.940;6.888;2023-06-10T00:50:33;14.70;;;10.27;;
3278;SDS011;1651;50.940;6.888;2023-06-10T00:52:59;10.67;;;9.60;;
3278;SDS011;1651;50.940;6.888;2023-06-10T00:55:26;9.60;;;8.70;;
3278;SDS011;1651;50.940;6.888;2023-06-10T00:57:52;11.70;;;10.60;;
3278;SDS011;1651;50.940;6.888;2023-06-10T01:00:19;11.07;;;9.70;;
3278;SDS011;1651;50.940;6.888;2023-06-10T01:02:46;10.37;;;9.47;;
3278;SDS011;1651;50.940;6.888;2023-06-10T01:05:12;12.57;;;10.80;;
3278;SDS011;1651;50.940;6.888;2023-06-10T01:07:40;10.90;;;9.80;;
3278;SDS011;1651;50.940;6.888;2023-06-10T01:10:20;11.70;;;10.50;;
3278;SDS011;1651;50.940;6.888;2023-06-10T01:12:58;11.10;;;9.97;;
3278;SDS011;1651;50.940;6.888;2023-06-10T01:15:27;12.03;;;10.83;;
3278;SDS011;1651;50.940;6.888;2023-06-10T01:17:57;11.63;;;10.50;;
3278;SDS011;1651;50.940;6.888;2023-06-10T01:20:24;10.97;;;9.97;;
3278;SDS011;1651;50.940;6.888;2023-06-10T01:22:51;11.20;;;10.20;;
3278;SDS011;1651;50.940;6.888;2023-06-10T01:25:19;11.03;;;10.03;;
3278;SDS011;1651;50.940;6.888;2023-06-10T01:27:52;11.27;;;10.03;;
3278;SDS011;1651;50.940;6.888;2023-06-10T01:30:19;13.07;;;11.20;;
3278;SDS011;1651;50.940;6.888;2023-06-10T01:32:50;12.80;;;11.50;;
3278;SDS011;1651;50.940;6.888;2023-06-10T01:35:17;13.20;;;11.43;;
3278;SDS011;1651;50.940;6.888;2023-06-10T01:37:45;11.53;;;10.43;;
3278;SDS011;1651;50.940;6.888;2023-06-10T01:40:11;12.23;;;11.13;;
3278;SDS011;1651;50.940;6.888;2023-06-10T01:42:38;12.57;;;10.83;;
3278;SDS011;1651;50.940;6.888;2023-06-10T01:45:04;11.40;;;10.30;;
3278;SDS011;1651;50.940;6.888;2023-06-10T01:47:30;14.20;;;11.43;;
3278;SDS011;1651;50.940;6.888;2023-06-10T01:49:56;11.67;;;10.53;;
3278;SDS011;1651;50.940;6.888;2023-06-10T01:52:22;12.90;;;11.67;;
3278;SDS011;1651;50.940;6.888;2023-06-10T01:54:48;12.23;;;11.13;;
3278;SDS011;1651;50.940;6.888;2023-06-10T01:57:14;12.57;;;11.23;;
3278;SDS011;1651;50.940;6.888;2023-06-10T01:59:40;13.30;;;11.90;;
3278;SDS011;1651;50.940;6.888;2023-06-10T02:02:09;12.73;;;11.43;;
3278;SDS011;1651;50.940;6.888;2023-06-10T02:04:35;12.50;;;11.20;;
3278;SDS011;1651;50.940;6.888;2023-06-10T02:07:02;12.33;;;11.03;;
3278;SDS011;1651;50.940;6.888;2023-06-10T02:09:29;11.53;;;10.50;;
3278;SDS011;1651;50.940;6.888;2023-06-10T02:11:57;11.77;;;10.60;;
3278;SDS011;1651;50.940;6.888;2023-06-10T02:14:23;12.70;;;11.60;;
3278;SDS011;1651;50.940;6.888;2023-06-10T02:16:49;13.10;;;11.90;;
3278;SDS011;1651;50.940;6.888;2023-06-10T02:19:16;12.87;;;11.60;;
3278;SDS011;1651;50.940;6.888;2023-06-10T02:21:42;12.53;;;11.23;;
3278;SDS011;1651;50.940;6.888;2023-06-10T02:24:08;13.50;;;12.20;;
3278;SDS011;1651;50.940;6.888;2023-06-10T02:26:34;12.30;;;11.10;;
3278;SDS011;1651;50.940;6.888;2023-06-10T02:29:00;13.00;;;11.80;;
3278;SDS011;1651;50.940;6.888;2023-06-10T02:31:27;13.93;;;12.50;;
3278;SDS011;1651;50.940;6.888;2023-06-10T02:33:53;13.90;;;12.40;;
3278;SDS011;1651;50.940;6.888;2023-06-10T02:36:20;12.90;;;11.60;;
3278;SDS011;1651;50.940;6.888;2023-06-10T02:38:57;12.30;;;11.10;;
3278;SDS011;1651;50.940;6.888;2023-06-10T02:41:23;12.93;;;11.30;;
3278;SDS011;1651;50.940;6.888;2023-06-10T02:43:50;13.40;;;10.87;;
3278;SDS011;1651;50.940;6.888;2023-06-10T02:46:15;12.20;;;11.00;;
3278;SDS011;1651;50.940;6.888;2023-06-10T02:48:42;14.13;;;12.73;;
3278;SDS011;1651;50.940;6.888;2023-06-10T02:51:11;12.03;;;10.77;;
3278;SDS011;1651;50.940;6.888;2023-06-10T02:53:38;12.47;;;11.17;;
3278;SDS011;1651;50.940;6.888;2023-06-10T02:56:04;12.53;;;11.37;;
3278;SDS011;1651;50.940;6.888;2023-06-10T02:58:32;12.63;;;11.43;;
3278;SDS011;1651;50.940;6.888;2023-06-10T03:00:58;13.47;;;12.17;;
3278;SDS011;1651;50.940;6.888;2023-06-10T03:03:24;13.00;;;11.70;;
3278;SDS011;1651;50.940;6.888;2023-06-10T03:05:50;13.87;;;12.57;;
3278;SDS011;1651;50.940;6.888;2023-06-10T03:08:16;14.17;;;12.87;;
3278;SDS011;1651;50.940;6.888;2023-06-10T03:10:43;13.63;;;12.33;;
3278;SDS011;1651;50.940;6.888;2023-06-10T03:13:09;13.50;;;12.10;;
3278;SDS011;1651;50.940;6.888;2023-06-10T03:15:35;14.17;;;12.77;;
3278;SDS011;1651;50.940;6.888;2023-06-10T03:18:03;13.20;;;11.90;;
3278;SDS011;1651;50.940;6.888;2023-06-10T03:20:29;13.73;;;11.60;;
3278;SDS011;1651;50.940;6.888;2023-06-10T03:22:55;14.60;;;11.93;;
3278;SDS011;1651;50.940;6.888;2023-06-10T03:25:21;13.23;;;12.00;;
3278;SDS011;1651;50.940;6.888;2023-06-10T03:27:47;12.53;;;11.33;;
3278;SDS011;1651;50.940;6.888;2023-06-10T03:30:13;13.50;;;12.07;;
3278;SDS011;1651;50.940;6.888;2023-06-10T03:32:40;13.23;;;11.97;;
3278;SDS011;1651;50.940;6.888;2023-06-10T03:35:06;13.97;;;12.53;;
3278;SDS011;1651;50.940;6.888;2023-06-10T03:37:32;15.43;;;12.87;;
3278;SDS011;1651;50.940;6.888;2023-06-10T03:40:00;13.27;;;12.00;;
3278;SDS011;1651;50.940;6.888;2023-06-10T03:42:26;14.17;;;12.90;;
3278;SDS011;1651;50.940;6.888;2023-06-10T03:44:52;15.90;;;13.17;;
3278;SDS011;1651;50.940;6.888;2023-06-10T03:47:18;16.20;;;12.50;;
3278;SDS011;1651;50.940;6.888;2023-06-10T03:49:44;13.63;;;12.33;;
3278;SDS011;1651;50.940;6.888;2023-06-10T03:52:10;13.33;;;12.13;;
3278;SDS011;1651;50.940;6.888;2023-06-10T03:54:36;14.27;;;12.40;;
3278;SDS011;1651;50.940;6.888;2023-06-10T03:57:02;14.20;;;12.60;;
3278;SDS011;1651;50.940;6.888;2023-06-10T03:59:29;12.60;;;11.30;;
3278;SDS011;1651;50.940;6.888;2023-06-10T04:01:55;13.57;;;12.27;;
3278;SDS011;1651;50.940;6.888;2023-06-10T04:04:21;13.60;;;12.20;;
3278;SDS011;1651;50.940;6.888;2023-06-10T04:06:46;13.80;;;12.50;;
3278;SDS011;1651;50.940;6.888;2023-06-10T04:09:16;12.87;;;11.30;;
3278;SDS011;1651;50.940;6.888;2023-06-10T04:11:42;12.50;;;11.30;;
3278;SDS011;1651;50.940;6.888;2023-06-10T04:14:08;13.70;;;12.23;;
3278;SDS011;1651;50.940;6.888;2023-06-10T04:16:34;13.20;;;12.00;;
3278;SDS011;1651;50.940;6.888;2023-06-10T04:19:00;12.20;;;11.10;;
3278;SDS011;1651;50.940;6.888;2023-06-10T04:21:27;12.10;;;11.00;;
3278;SDS011;1651;50.940;6.888;2023-06-10T04:23:53;13.30;;;12.00;;
3278;SDS011;1651;50.940;6.888;2023-06-10T04:26:19;13.70;;;12.27;;
3278;SDS011;1651;50.940;6.888;2023-06-10T04:28:45;13.13;;;11.97;;
3278;SDS011;1651;50.940;6.888;2023-06-10T04:31:11;13.00;;;11.80;;
3278;SDS011;1651;50.940;6.888;2023-06-10T04:33:37;14.50;;;13.10;;
3278;SDS011;1651;50.940;6.888;2023-06-10T04:36:04;13.70;;;12.37;;
3278;SDS011;1651;50.940;6.888;2023-06-10T04:38:31;15.63;;;12.57;;
3278;SDS011;1651;50.940;6.888;2023-06-10T04:40:58;12.90;;;11.70;;
3278;SDS011;1651;50.940;6.888;2023-06-10T04:43:24;12.90;;;11.53;;
3278;SDS011;1651;50.940;6.888;2023-06-10T04:45:50;13.23;;;11.93;;
3278;SDS011;1651;50.940;6.888;2023-06-10T04:48:16;12.50;;;11.40;;
3278;SDS011;1651;50.940;6.888;2023-06-10T04:50:42;14.00;;;12.60;;
3278;SDS011;1651;50.940;6.888;2023-06-10T04:53:08;12.20;;;10.90;;
3278;SDS011;1651;50.940;6.888;2023-06-10T04:55:34;14.00;;;11.50;;
3278;SDS011;1651;50.940;6.888;2023-06-10T04:58:01;14.03;;;12.53;;
3278;SDS011;1651;50.940;6.888;2023-06-10T05:00:27;12.97;;;11.57;;
3278;SDS011;1651;50.940;6.888;2023-06-10T05:02:53;11.97;;;10.97;;
3278;SDS011;1651;50.940;6.888;2023-06-10T05:05:20;12.67;;;11.47;;
3278;SDS011;1651;50.940;6.888;2023-06-10T05:07:48;12.87;;;11.70;;
3278;SDS011;1651;50.940;6.888;2023-06-10T05:10:14;11.37;;;10.27;;
3278;SDS011;1651;50.940;6.888;2023-06-10T05:15:09;12.33;;;10.80;;
3278;SDS011;1651;50.940;6.888;2023-06-10T05:17:35;11.53;;;10.53;;
3278;SDS011;1651;50.940;6.888;2023-06-10T05:20:02;12.33;;;11.03;;
3278;SDS011;1651;50.940;6.888;2023-06-10T05:22:28;11.93;;;10.53;;
3278;SDS011;1651;50.940;6.888;2023-06-10T05:24:54;14.13;;;10.00;;
3278;SDS011;1651;50.940;6.888;2023-06-10T05:27:22;10.90;;;9.90;;
3278;SDS011;1651;50.940;6.888;2023-06-10T05:29:49;10.70;;;9.60;;
3278;SDS011;1651;50.940;6.888;2023-06-10T05:32:17;10.30;;;9.40;;
3278;SDS011;1651;50.940;6.888;2023-06-10T05:34:43;9.60;;;8.40;;
3278;SDS011;1651;50.940;6.888;2023-06-10T05:37:10;10.43;;;8.20;;
3278;SDS011;1651;50.940;6.888;2023-06-10T05:39:36;9.60;;;8.70;;
3278;SDS011;1651;50.940;6.888;2023-06-10T05:42:03;9.30;;;8.50;;
3278;SDS011;1651;50.940;6.888;2023-06-10T05:44:31;9.80;;;8.80;;
3278;SDS011;1651;50.940;6.888;2023-06-10T05:46:57;8.20;;;7.50;;
3278;SDS011;1651;50.940;6.888;2023-06-10T05:49:23;8.07;;;7.27;;
3278;SDS011;1651;50.940;6.888;2023-06-10T05:51:49;7.83;;;7.07;;
3278;SDS011;1651;50.940;6.888;2023-06-10T05:54:17;7.43;;;6.67;;
3278;SDS011;1651;50.940;6.888;2023-06-10T05:56:43;6.43;;;5.93;;
3278;SDS011;1651;50.940;6.888;2023-06-10T05:59:09;6.80;;;6.10;;
3278;SDS011;1651;50.940;6.888;2023-06-10T06:01:36;6.83;;;6.10;;
3278;SDS011;1651;50.940;6.888;2023-06-10T06:04:02;7.27;;;6.60;;
3278;SDS011;1651;50.940;6.888;2023-06-10T06:06:38;6.97;;;6.27;;
3278;SDS011;1651;50.940;6.888;2023-06-10T06:09:04;7.17;;;6.47;;
3278;SDS011;1651;50.940;6.888;2023-06-10T06:11:30;18.10;;;7.80;;
3278;SDS011;1651;50.940;6.888;2023-06-10T06:13:56;7.07;;;6.33;;
3278;SDS011;1651;50.940;6.888;2023-06-10T06:16:22;7.10;;;5.97;;
3278;SDS011;1651;50.940;6.888;2023-06-10T06:18:49;6.90;;;6.30;;
3278;SDS011;1651;50.940;6.888;2023-06-10T06:21:15;6.00;;;5.50;;
3278;SDS011;1651;50.940;6.888;2023-06-10T06:23:41;5.57;;;5.17;;
3278;SDS011;1651;50.940;6.888;2023-06-10T06:26:07;6.07;;;5.57;;
3278;SDS011;1651;50.940;6.888;2023-06-10T06:28:37;5.23;;;4.83;;
3278;SDS011;1651;50.940;6.888;2023-06-10T06:31:04;6.27;;;5.77;;
3278;SDS011;1651;50.940;6.888;2023-06-10T06:33:30;5.37;;;4.97;;
3278;SDS011;1651;50.940;6.888;2023-06-10T06:35:56;5.70;;;5.20;;
3278;SDS011;1651;50.940;6.888;2023-06-10T06:38:22;5.87;;;5.37;;
3278;SDS011;1651;50.940;6.888;2023-06-10T06:40:48;5.50;;;5.00;;
3278;SDS011;1651;50.940;6.888;2023-06-10T06:43:14;5.83;;;4.93;;
3278;SDS011;1651;50.940;6.888;2023-06-10T06:45:42;6.03;;;5.17;;
3278;SDS011;1651;50.940;6.888;2023-06-10T06:48:08;6.07;;;5.57;;
3278;SDS011;1651;50.940;6.888;2023-06-10T06:50:34;5.33;;;4.83;;
3278;SDS011;1651;50.940;6.888;2023-06-10T06:53:00;7.80;;;4.67;;
3278;SDS011;1651;50.940;6.888;2023-06-10T06:55:26;6.10;;;5.43;;
3278;SDS011;1651;50.940;6.888;2023-06-10T06:57:52;7.50;;;5.40;;
3278;SDS011;1651;50.940;6.888;2023-06-10T07:00:18;22.90;;;9.57;;
3278;SDS011;1651;50.940;6.888;2023-06-10T07:02:44;39.13;;;10.83;;
3278;SDS011;1651;50.940;6.888;2023-06-10T07:05:10;16.00;;;7.57;;
3278;SDS011;1651;50.940;6.888;2023-06-10T07:07:36;12.10;;;6.90;;
3278;SDS011;1651;50.940;6.888;2023-06-10T07:10:02;10.70;;;5.70;;
3278;SDS011;1651;50.940;6.888;2023-06-10T07:12:28;31.20;;;10.17;;
3278;SDS011;1651;50.940;6.888;2023-06-10T07:14:54;13.20;;;5.60;;
3278;SDS011;1651;50.940;6.888;2023-06-10T07:17:20;6.00;;;5.60;;
3278;SDS011;1651;50.940;6.888;2023-06-10T07:19:46;6.10;;;5.43;;
3278;SDS011;1651;50.940;6.888;2023-06-10T07:22:12;7.47;;;5.20;;
3278;SDS011;1651;50.940;6.888;2023-06-10T07:24:38;17.67;;;8.07;;
3278;SDS011;1651;50.940;6.888;2023-06-10T07:27:04;10.90;;;5.77;;
3278;SDS011;1651;50.940;6.888;2023-06-10T07:29:30;8.80;;;6.30;;
3278;SDS011;1651;50.940;6.888;2023-06-10T07:31:57;7.63;;;6.13;;
3278;SDS011;1651;50.940;6.888;2023-06-10T07:34:22;40.07;;;9.67;;
3278;SDS011;1651;50.940;6.888;2023-06-10T07:36:48;6.57;;;5.97;;
3278;SDS011;1651;50.940;6.888;2023-06-10T07:39:14;7.13;;;5.40;;
3278;SDS011;1651;50.940;6.888;2023-06-10T07:41:42;6.33;;;5.60;;
3278;SDS011;1651;50.940;6.888;2023-06-10T07:44:08;6.43;;;5.83;;
3278;SDS011;1651;50.940;6.888;2023-06-10T07:46:34;9.53;;;6.13;;
3278;SDS011;1651;50.940;6.888;2023-06-10T07:49:00;5.57;;;5.17;;
3278;SDS011;1651;50.940;6.888;2023-06-10T07:51:27;5.60;;;5.10;;
3278;SDS011;1651;50.940;6.888;2023-06-10T07:53:53;5.10;;;4.57;;
3278;SDS011;1651;50.940;6.888;2023-06-10T07:56:19;6.67;;;5.57;;
3278;SDS011;1651;50.940;6.888;2023-06-10T07:58:46;5.40;;;4.90;;
3278;SDS011;1651;50.940;6.888;2023-06-10T08:01:12;6.57;;;5.93;;
3278;SDS011;1651;50.940;6.888;2023-06-10T08:03:38;5.93;;;5.13;;
3278;SDS011;1651;50.940;6.888;2023-06-10T08:06:04;24.43;;;7.73;;
3278;SDS011;1651;50.940;6.888;2023-06-10T08:08:30;25.13;;;10.57;;
3278;SDS011;1651;50.940;6.888;2023-06-10T08:10:56;16.50;;;6.93;;
3278;SDS011;1651;50.940;6.888;2023-06-10T08:13:22;5.87;;;5.23;;
3278;SDS011;1651;50.940;6.888;2023-06-10T08:15:48;20.23;;;8.27;;
3278;SDS011;1651;50.940;6.888;2023-06-10T08:18:15;26.33;;;9.23;;
3278;SDS011;1651;50.940;6.888;2023-06-10T08:20:43;70.50;;;14.73;;
3278;SDS011;1651;50.940;6.888;2023-06-10T08:23:10;19.27;;;7.20;;
3278;SDS011;1651;50.940;6.888;2023-06-10T08:25:35;7.00;;;5.93;;
3278;SDS011;1651;50.940;6.888;2023-06-10T08:28:03;5.93;;;5.43;;
3278;SDS011;1651;50.940;6.888;2023-06-10T08:30:29;7.60;;;5.40;;
3278;SDS011;1651;50.940;6.888;2023-06-10T08:32:59;13.73;;;7.47;;
3278;SDS011;1651;50.940;6.888;2023-06-10T08:35:25;14.55;;;4.63;;
3278;SDS011;1651;50.940;6.888;2023-06-10T08:37:51;82.70;;;18.27;;
3278;SDS011;1651;50.940;6.888;2023-06-10T08:40:17;17.35;;;6.80;;
3278;SDS011;1651;50.940;6.888;2023-06-10T08:42:45;27.08;;;9.20;;
3278;SDS011;1651;50.940;6.888;2023-06-10T08:45:16;81.13;;;16.55;;
3278;SDS011;1651;50.940;6.888;2023-06-10T08:47:45;8.02;;;5.47;;
3278;SDS011;1651;50.940;6.888;2023-06-10T08:50:12;6.50;;;6.00;;
3278;SDS011;1651;50.940;6.888;2023-06-10T08:52:39;7.35;;;5.78;;
3278;SDS011;1651;50.940;6.888;2023-06-10T08:55:15;5.75;;;5.32;;
3278;SDS011;1651;50.940;6.888;2023-06-10T08:57:41;5.90;;;5.40;;
3278;SDS011;1651;50.940;6.888;2023-06-10T09:00:09;6.32;;;5.82;;
3278;SDS011;1651;50.940;6.888;2023-06-10T09:02:37;5.70;;;5.20;;
3278;SDS011;1651;50.940;6.888;2023-06-10T09:05:03;7.65;;;5.75;;
3278;SDS011;1651;50.940;6.888;2023-06-10T09:07:35;6.70;;;6.20;;
3278;SDS011;1651;50.940;6.888;2023-06-10T09:10:03;6.27;;;5.67;;
3278;SDS011;1651;50.940;6.888;2023-06-10T09:12:33;6.00;;;5.50;;
3278;SDS011;1651;50.940;6.888;2023-06-10T09:15:00;6.30;;;5.57;;
3278;SDS011;1651;50.940;6.888;2023-06-10T09:17:26;6.00;;;5.45;;
3278;SDS011;1651;50.940;6.888;2023-06-10T09:19:53;6.93;;;6.22;;
3278;SDS011;1651;50.940;6.888;2023-06-10T09:22:21;7.72;;;5.85;;
3278;SDS011;1651;50.940;6.888;2023-06-10T09:24:47;6.72;;;6.20;;
3278;SDS011;1651;50.940;6.888;2023-06-10T09:27:13;9.50;;;6.93;;
3278;SDS011;1651;50.940;6.888;2023-06-10T09:29:46;6.45;;;5.90;;
3278;SDS011;1651;50.940;6.888;2023-06-10T09:32:14;6.45;;;5.95;;
3278;SDS011;1651;50.940;6.888;2023-06-10T09:34:42;5.93;;;5.40;;
3278;SDS011;1651;50.940;6.888;2023-06-10T09:37:09;5.95;;;5.45;;
3278;SDS011;1651;50.940;6.888;2023-06-10T09:39:37;6.78;;;5.50;;
3278;SDS011;1651;50.940;6.888;2023-06-10T09:42:16;6.67;;;5.97;;
3278;SDS011;1651;50.940;6.888;2023-06-10T09:44:53;6.23;;;5.67;;
3278;SDS011;1651;50.940;6.888;2023-06-10T09:47:35;6.17;;;5.57;;
3278;SDS011;1651;50.940;6.888;2023-06-10T09:50:01;6.20;;;5.70;;
3278;SDS011;1651;50.940;6.888;2023-06-10T09:52:32;6.20;;;5.80;;
3278;SDS011;1651;50.940;6.888;2023-06-10T09:54:59;6.27;;;5.77;;
3278;SDS011;1651;50.940;6.888;2023-06-10T09:57:26;5.70;;;5.30;;
3278;SDS011;1651;50.940;6.888;2023-06-10T09:59:57;6.20;;;5.60;;
3278;SDS011;1651;50.940;6.888;2023-06-10T10:02:23;8.00;;;7.13;;
3278;SDS011;1651;50.940;6.888;2023-06-10T10:04:49;6.47;;;5.87;;
3278;SDS011;1651;50.940;6.888;2023-06-10T10:07:16;7.00;;;6.50;;
3278;SDS011;1651;50.940;6.888;2023-06-10T10:09:42;6.47;;;5.97;;
3278;SDS011;1651;50.940;6.888;2023-06-10T10:12:09;7.00;;;6.40;;
3278;SDS011;1651;50.940;6.888;2023-06-10T10:14:36;6.67;;;6.07;;
3278;SDS011;1651;50.940;6.888;2023-06-10T10:17:04;6.73;;;6.03;;
3278;SDS011;1651;50.940;6.888;2023-06-10T10:19:34;6.33;;;5.80;;
3278;SDS011;1651;50.940;6.888;2023-06-10T10:22:06;7.23;;;6.60;;
3278;SDS011;1651;50.940;6.888;2023-06-10T10:24:38;7.97;;;6.07;;
3278;SDS011;1651;50.940;6.888;2023-06-10T10:27:07;8.00;;;6.53;;
3278;SDS011;1651;50.940;6.888;2023-06-10T10:32:07;6.70;;;6.20;;
3278;SDS011;1651;50.940;6.888;2023-06-10T10:37:01;8.13;;;7.43;;
3278;SDS011;1651;50.940;6.888;2023-06-10T10:39:30;8.73;;;7.03;;
3278;SDS011;1651;50.940;6.888;2023-06-10T10:41:56;8.23;;;6.00;;
3278;SDS011;1651;50.940;6.888;2023-06-10T10:44:22;7.80;;;7.10;;
3278;SDS011;1651;50.940;6.888;2023-06-10T10:46:50;6.77;;;6.17;;
3278;SDS011;1651;50.940;6.888;2023-06-10T10:49:20;7.77;;;7.07;;
3278;SDS011;1651;50.940;6.888;2023-06-10T10:52:00;8.23;;;6.17;;
3278;SDS011;1651;50.940;6.888;2023-06-10T10:59:56;7.77;;;7.00;;
3278;SDS011;1651;50.940;6.888;2023-06-10T11:02:44;7.20;;;6.50;;
3278;SDS011;1651;50.940;6.888;2023-06-10T11:05:12;6.73;;;6.13;;
3278;SDS011;1651;50.940;6.888;2023-06-10T11:07:38;8.40;;;7.23;;
3278;SDS011;1651;50.940;6.888;2023-06-10T11:15:29;6.80;;;6.20;;
3278;SDS011;1651;50.940;6.888;2023-06-10T11:18:11;7.70;;;6.60;;
3278;SDS011;1651;50.940;6.888;2023-06-10T11:20:44;6.33;;;5.83;;
3278;SDS011;1651;50.940;6.888;2023-06-10T11:23:11;11.50;;;6.70;;
3278;SDS011;1651;50.940;6.888;2023-06-10T11:28:35;7.07;;;6.47;;
3278;SDS011;1651;50.940;6.888;2023-06-10T11:31:01;5.70;;;5.20;;
3278;SDS011;1651;50.940;6.888;2023-06-10T11:33:27;6.53;;;5.93;;
3278;SDS011;1651;50.940;6.888;2023-06-10T11:35:54;5.80;;;5.30;;
3278;SDS011;1651;50.940;6.888;2023-06-10T11:38:20;6.67;;;6.17;;
3278;SDS011;1651;50.940;6.888;2023-06-10T11:40:49;7.10;;;6.50;;
3278;SDS011;1651;50.940;6.888;2023-06-10T11:43:21;6.63;;;6.03;;
3278;SDS011;1651;50.940;6.888;2023-06-10T11:45:47;7.53;;;6.30;;
3278;SDS011;1651;50.940;6.888;2023-06-10T11:48:13;8.27;;;6.43;;
3278;SDS011;1651;50.940;6.888;2023-06-10T11:50:39;8.03;;;5.53;;
3278;SDS011;1651;50.940;6.888;2023-06-10T11:53:09;7.53;;;6.90;;
3278;SDS011;1651;50.940;6.888;2023-06-10T11:58:24;6.07;;;5.57;;
3278;SDS011;1651;50.940;6.888;2023-06-10T12:00:51;7.17;;;4.87;;
3278;SDS011;1651;50.940;6.888;2023-06-10T12:03:18;5.90;;;5.40;;
3278;SDS011;1651;50.940;6.888;2023-06-10T12:05:55;6.47;;;5.87;;
3278;SDS011;1651;50.940;6.888;2023-06-10T12:08:22;5.30;;;4.90;;
3278;SDS011;1651;50.940;6.888;2023-06-10T12:10:49;6.80;;;5.27;;
3278;SDS011;1651;50.940;6.888;2023-06-10T12:13:27;7.23;;;6.10;;
3278;SDS011;1651;50.940;6.888;2023-06-10T12:15:53;7.90;;;6.10;;
3278;SDS011;1651;50.940;6.888;2023-06-10T12:18:38;6.47;;;5.87;;
3278;SDS011;1651;50.940;6.888;2023-06-10T12:21:15;6.80;;;5.43;;
3278;SDS011;1651;50.940;6.888;2023-06-10T12:26:58;7.10;;;6.50;;
3278;SDS011;1651;50.940;6.888;2023-06-10T12:32:45;7.00;;;6.40;;
3278;SDS011;1651;50.940;6.888;2023-06-10T12:35:27;6.20;;;5.70;;
3278;SDS011;1651;50.940;6.888;2023-06-10T12:37:57;7.17;;;6.47;;
3278;SDS011;1651;50.940;6.888;2023-06-10T12:40:26;6.63;;;5.97;;
3278;SDS011;1651;50.940;6.888;2023-06-10T12:46:08;6.73;;;6.10;;
3278;SDS011;1651;50.940;6.888;2023-06-10T12:48:52;12.43;;;6.47;;
3278;SDS011;1651;50.940;6.888;2023-06-10T12:51:24;6.60;;;6.00;;
3278;SDS011;1651;50.940;6.888;2023-06-10T12:53:50;6.77;;;6.10;;
3278;SDS011;1651;50.940;6.888;2023-06-10T12:56:19;6.13;;;5.63;;
3278;SDS011;1651;50.940;6.888;2023-06-10T12:58:49;7.10;;;6.40;;
3278;SDS011;1651;50.940;6.888;2023-06-10T13:01:17;6.73;;;6.13;;
3278;SDS011;1651;50.940;6.888;2023-06-10T13:03:43;5.43;;;5.00;;
3278;SDS011;1651;50.940;6.888;2023-06-10T13:06:10;6.20;;;5.60;;
3278;SDS011;1651;50.940;6.888;2023-06-10T13:08:37;6.37;;;5.77;;
3278;SDS011;1651;50.940;6.888;2023-06-10T13:11:03;5.67;;;5.17;;
3278;SDS011;1651;50.940;6.888;2023-06-10T13:13:29;5.40;;;4.80;;
3278;SDS011;1651;50.940;6.888;2023-06-10T13:15:55;7.03;;;6.30;;
3278;SDS011;1651;50.940;6.888;2023-06-10T13:18:21;5.40;;;4.90;;
3278;SDS011;1651;50.940;6.888;2023-06-10T13:20:47;5.50;;;5.10;;
3278;SDS011;1651;50.940;6.888;2023-06-10T13:23:13;6.37;;;5.33;;
3278;SDS011;1651;50.940;6.888;2023-06-10T13:25:40;6.80;;;5.30;;
3278;SDS011;1651;50.940;6.888;2023-06-10T13:28:09;5.33;;;4.93;;
3278;SDS011;1651;50.940;6.888;2023-06-10T13:30:45;6.77;;;5.10;;
3278;SDS011;1651;50.940;6.888;2023-06-10T13:33:12;7.30;;;4.43;;
3278;SDS011;1651;50.940;6.888;2023-06-10T13:35:38;4.67;;;4.27;;
3278;SDS011;1651;50.940;6.888;2023-06-10T13:38:05;4.70;;;4.30;;
3278;SDS011;1651;50.940;6.888;2023-06-10T13:40:33;6.27;;;5.67;;
3278;SDS011;1651;50.940;6.888;2023-06-10T13:42:59;5.83;;;5.10;;
3278;SDS011;1651;50.940;6.888;2023-06-10T13:45:25;6.93;;;6.37;;
3278;SDS011;1651;50.940;6.888;2023-06-10T13:47:53;6.73;;;5.77;;
3278;SDS011;1651;50.940;6.888;2023-06-10T13:50:19;5.77;;;5.27;;
3278;SDS011;1651;50.940;6.888;2023-06-10T13:52:46;6.00;;;5.50;;
3278;SDS011;1651;50.940;6.888;2023-06-10T13:55:12;6.37;;;5.80;;
3278;SDS011;1651;50.940;6.888;2023-06-10T13:57:38;6.30;;;5.70;;
3278;SDS011;1651;50.940;6.888;2023-06-10T14:00:04;5.90;;;5.40;;
3278;SDS011;1651;50.940;6.888;2023-06-10T14:02:30;6.57;;;5.00;;
3278;SDS011;1651;50.940;6.888;2023-06-10T14:04:56;5.90;;;5.30;;
3278;SDS011;1651;50.940;6.888;2023-06-10T14:07:23;5.97;;;5.10;;
3278;SDS011;1651;50.940;6.888;2023-06-10T14:09:51;5.30;;;4.90;;
3278;SDS011;1651;50.940;6.888;2023-06-10T14:12:17;5.77;;;5.27;;
3278;SDS011;1651;50.940;6.888;2023-06-10T14:14:43;6.50;;;5.90;;
3278;SDS011;1651;50.940;6.888;2023-06-10T14:17:09;6.73;;;5.97;;
3278;SDS011;1651;50.940;6.888;2023-06-10T14:19:35;7.10;;;5.47;;
3278;SDS011;1651;50.940;6.888;2023-06-10T14:22:01;5.60;;;5.10;;
3278;SDS011;1651;50.940;6.888;2023-06-10T14:24:27;5.70;;;5.17;;
3278;SDS011;1651;50.940;6.888;2023-06-10T14:26:54;5.77;;;5.27;;
3278;SDS011;1651;50.940;6.888;2023-06-10T14:29:20;6.13;;;5.27;;
3278;SDS011;1651;50.940;6.888;2023-06-10T14:31:46;4.20;;;3.80;;
3278;SDS011;1651;50.940;6.888;2023-06-10T14:34:12;6.60;;;5.40;;
3278;SDS011;1651;50.940;6.888;2023-06-10T14:36:38;5.57;;;5.07;;
3278;SDS011;1651;50.940;6.888;2023-06-10T14:39:05;6.17;;;5.07;;
3278;SDS011;1651;50.940;6.888;2023-06-10T14:41:31;5.70;;;5.20;;
3278;SDS011;1651;50.940;6.888;2023-06-10T14:43:58;5.53;;;5.13;;
3278;SDS011;1651;50.940;6.888;2023-06-10T14:46:24;5.97;;;5.47;;
3278;SDS011;1651;50.940;6.888;2023-06-10T14:48:50;7.03;;;5.60;;
3278;SDS011;1651;50.940;6.888;2023-06-10T14:51:16;5.00;;;4.50;;
3278;SDS011;1651;50.940;6.888;2023-06-10T14:53:42;5.93;;;4.90;;
3278;SDS011;1651;50.940;6.888;2023-06-10T14:56:08;5.57;;;4.90;;
3278;SDS011;1651;50.940;6.888;2023-06-10T14:58:34;6.70;;;6.10;;
3278;SDS011;1651;50.940;6.888;2023-06-10T15:01:00;7.63;;;5.80;;
3278;SDS011;1651;50.940;6.888;2023-06-10T15:03:26;8.10;;;5.63;;
3278;SDS011;1651;50.940;6.888;2023-06-10T15:05:52;6.40;;;4.70;;
3278;SDS011;1651;50.940;6.888;2023-06-10T15:08:18;5.53;;;5.00;;
3278;SDS011;1651;50.940;6.888;2023-06-10T15:10:44;7.23;;;5.33;;
3278;SDS011;1651;50.940;6.888;2023-06-10T15:13:10;5.80;;;5.30;;
3278;SDS011;1651;50.940;6.888;2023-06-10T15:15:36;4.90;;;4.50;;
3278;SDS011;1651;50.940;6.888;2023-06-10T15:18:02;5.50;;;4.83;;
3278;SDS011;1651;50.940;6.888;2023-06-10T15:20:28;5.53;;;5.13;;
3278;SDS011;1651;50.940;6.888;2023-06-10T15:22:54;5.77;;;5.27;;
3278;SDS011;1651;50.940;6.888;2023-06-10T15:25:20;5.63;;;4.90;;
3278;SDS011;1651;50.940;6.888;2023-06-10T15:27:46;6.93;;;5.63;;
3278;SDS011;1651;50.940;6.888;2023-06-10T15:30:12;5.57;;;5.17;;
3278;SDS011;1651;50.940;6.888;2023-06-10T15:32:38;5.37;;;4.67;;
3278;SDS011;1651;50.940;6.888;2023-06-10T15:35:04;6.60;;;5.93;;
3278;SDS011;1651;50.940;6.888;2023-06-10T15:37:30;5.60;;;5.20;;
3278;SDS011;1651;50.940;6.888;2023-06-10T15:39:56;4.73;;;3.93;;